sensor_id;sensor_type;location;lat;lon;timestamp;temperature;humidity
4107;DHT22;21906;50.812;7.132;2022-08-11T00:01:52;23.10;44.10
4107;DHT22;21906;50.812;7.132;2022-08-11T00:04:22;23.10;44.10
4107;DHT22;21906;50.812;7.132;2022-08-11T00:06:49;23.00;44.50
4107;DHT22;21906;50.812;7.132;2022-08-11T00:09:21;22.90;44.80
4107;DHT22;21906;50.812;7.132;2022-08-11T00:11:55;22.90;44.90
4107;DHT22;21906;50.812;7.132;2022-08-11T00:14:26;22.90;45.00
4107;DHT22;21906;50.812;7.132;2022-08-11T00:17:03;22.80;45.10
4107;DHT22;21906;50.812;7.132;2022-08-11T00:19:36;22.80;45.30
4107;DHT22;21906;50.812;7.132;2022-08-11T00:22:03;22.70;45.50
4107;DHT22;21906;50.812;7.132;2022-08-11T00:24:38;22.60;45.40
4107;DHT22;21906;50.812;7.132;2022-08-11T00:27:05;22.50;45.40
4107;DHT22;21906;50.812;7.132;2022-08-11T00:29:32;22.50;45.80
4107;DHT22;21906;50.812;7.132;2022-08-11T00:32:02;22.50;45.70
4107;DHT22;21906;50.812;7.132;2022-08-11T00:34:31;22.40;46.00
4107;DHT22;21906;50.812;7.132;2022-08-11T00:37:02;22.40;45.90
4107;DHT22;21906;50.812;7.132;2022-08-11T00:39:31;22.30;45.90
4107;DHT22;21906;50.812;7.132;2022-08-11T00:49:42;22.10;46.70
4107;DHT22;21906;50.812;7.132;2022-08-11T00:55:24;22.10;47.10
4107;DHT22;21906;50.812;7.132;2022-08-11T01:24:25;21.80;48.40
4107;DHT22;21906;50.812;7.132;2022-08-11T01:27:12;21.70;48.50
4107;DHT22;21906;50.812;7.132;2022-08-11T01:47:37;21.40;49.40
4107;DHT22;21906;50.812;7.132;2022-08-11T01:59:18;21.20;50.20
4107;DHT22;21906;50.812;7.132;2022-08-11T02:04:33;21.20;50.30
4107;DHT22;21906;50.812;7.132;2022-08-11T02:07:12;21.10;50.70
4107;DHT22;21906;50.812;7.132;2022-08-11T02:09:47;21.10;50.90
4107;DHT22;21906;50.812;7.132;2022-08-11T02:15:01;21.00;51.00
4107;DHT22;21906;50.812;7.132;2022-08-11T02:20:19;20.90;51.50
4107;DHT22;21906;50.812;7.132;2022-08-11T02:23:26;20.90;51.50
4107;DHT22;21906;50.812;7.132;2022-08-11T02:34:37;20.90;51.80
4107;DHT22;21906;50.812;7.132;2022-08-11T02:42:48;20.80;51.70
4107;DHT22;21906;50.812;7.132;2022-08-11T03:10:31;20.60;51.30
4107;DHT22;21906;50.812;7.132;2022-08-11T03:13:19;20.60;51.50
4107;DHT22;21906;50.812;7.132;2022-08-11T03:16:18;20.50;51.60
4107;DHT22;21906;50.812;7.132;2022-08-11T03:22:04;20.50;52.00
4107;DHT22;21906;50.812;7.132;2022-08-11T03:35:40;20.30;52.40
4107;DHT22;21906;50.812;7.132;2022-08-11T03:38:13;20.30;52.60
4107;DHT22;21906;50.812;7.132;2022-08-11T03:41:04;20.30;52.70
4107;DHT22;21906;50.812;7.132;2022-08-11T03:44:12;20.20;52.60
4107;DHT22;21906;50.812;7.132;2022-08-11T03:49:53;20.20;52.80
4107;DHT22;21906;50.812;7.132;2022-08-11T03:52:48;20.20;52.90
4107;DHT22;21906;50.812;7.132;2022-08-11T03:56:10;20.20;53.00
4107;DHT22;21906;50.812;7.132;2022-08-11T04:21:40;19.90;53.80
4107;DHT22;21906;50.812;7.132;2022-08-11T04:36:01;19.90;54.10
4107;DHT22;21906;50.812;7.132;2022-08-11T04:39:15;19.80;54.10
4107;DHT22;21906;50.812;7.132;2022-08-11T04:42:12;19.90;54.00
4107;DHT22;21906;50.812;7.132;2022-08-11T04:45:37;19.90;54.10
4107;DHT22;21906;50.812;7.132;2022-08-11T04:54:54;19.90;53.70
4107;DHT22;21906;50.812;7.132;2022-08-11T04:58:11;20.00;53.80
4107;DHT22;21906;50.812;7.132;2022-08-11T05:07:05;20.00;53.50
4107;DHT22;21906;50.812;7.132;2022-08-11T05:15:17;20.20;52.80
4107;DHT22;21906;50.812;7.132;2022-08-11T05:18:15;20.20;53.00
4107;DHT22;21906;50.812;7.132;2022-08-11T05:21:08;20.30;52.80
4107;DHT22;21906;50.812;7.132;2022-08-11T05:24:02;20.30;52.70
4107;DHT22;21906;50.812;7.132;2022-08-11T05:26:49;20.40;52.60
4107;DHT22;21906;50.812;7.132;2022-08-11T05:30:05;20.40;52.30
4107;DHT22;21906;50.812;7.132;2022-08-11T05:33:04;20.40;52.30
4107;DHT22;21906;50.812;7.132;2022-08-11T05:35:54;20.30;52.40
4107;DHT22;21906;50.812;7.132;2022-08-11T05:38:24;20.40;52.60
4107;DHT22;21906;50.812;7.132;2022-08-11T05:41:13;20.40;52.50
4107;DHT22;21906;50.812;7.132;2022-08-11T05:44:02;20.30;52.40
4107;DHT22;21906;50.812;7.132;2022-08-11T05:46:48;20.40;52.40
4107;DHT22;21906;50.812;7.132;2022-08-11T05:49:33;20.50;52.20
4107;DHT22;21906;50.812;7.132;2022-08-11T05:52:23;20.60;51.90
4107;DHT22;21906;50.812;7.132;2022-08-11T05:55:09;20.60;52.10
4107;DHT22;21906;50.812;7.132;2022-08-11T05:58:00;20.70;51.90
4107;DHT22;21906;50.812;7.132;2022-08-11T06:00:26;20.70;51.90
4107;DHT22;21906;50.812;7.132;2022-08-11T06:02:54;20.80;51.30
4107;DHT22;21906;50.812;7.132;2022-08-11T06:05:21;20.90;51.40
4107;DHT22;21906;50.812;7.132;2022-08-11T06:07:48;20.90;51.30
4107;DHT22;21906;50.812;7.132;2022-08-11T06:10:30;20.90;50.90
4107;DHT22;21906;50.812;7.132;2022-08-11T06:12:58;20.90;50.70
4107;DHT22;21906;50.812;7.132;2022-08-11T06:15:26;20.90;51.30
4107;DHT22;21906;50.812;7.132;2022-08-11T06:17:54;20.80;51.60
4107;DHT22;21906;50.812;7.132;2022-08-11T06:20:21;21.00;50.80
4107;DHT22;21906;50.812;7.132;2022-08-11T06:22:55;21.10;49.50
4107;DHT22;21906;50.812;7.132;2022-08-11T06:25:22;21.20;49.40
4107;DHT22;21906;50.812;7.132;2022-08-11T06:27:55;21.40;49.30
4107;DHT22;21906;50.812;7.132;2022-08-11T06:30:33;21.50;48.50
4107;DHT22;21906;50.812;7.132;2022-08-11T06:33:08;21.60;48.10
4107;DHT22;21906;50.812;7.132;2022-08-11T06:38:35;21.70;47.10
4107;DHT22;21906;50.812;7.132;2022-08-11T06:41:06;21.80;46.60
4107;DHT22;21906;50.812;7.132;2022-08-11T06:46:34;22.00;46.20
4107;DHT22;21906;50.812;7.132;2022-08-11T06:49:04;22.10;45.90
4107;DHT22;21906;50.812;7.132;2022-08-11T06:51:33;22.20;45.50
4107;DHT22;21906;50.812;7.132;2022-08-11T06:54:01;22.40;45.40
4107;DHT22;21906;50.812;7.132;2022-08-11T06:56:32;22.40;45.20
4107;DHT22;21906;50.812;7.132;2022-08-11T06:59:18;22.40;45.30
4107;DHT22;21906;50.812;7.132;2022-08-11T07:02:16;22.50;45.10
4107;DHT22;21906;50.812;7.132;2022-08-11T07:05:09;22.70;44.80
4107;DHT22;21906;50.812;7.132;2022-08-11T07:13:51;23.00;44.00
4107;DHT22;21906;50.812;7.132;2022-08-11T07:16:38;23.20;43.90
4107;DHT22;21906;50.812;7.132;2022-08-11T07:19:07;23.20;43.80
4107;DHT22;21906;50.812;7.132;2022-08-11T07:21:54;23.30;44.60
4107;DHT22;21906;50.812;7.132;2022-08-11T07:25:04;23.40;44.30
4107;DHT22;21906;50.812;7.132;2022-08-11T07:27:57;23.50;44.80
4107;DHT22;21906;50.812;7.132;2022-08-11T07:30:43;23.50;43.50
4107;DHT22;21906;50.812;7.132;2022-08-11T07:33:10;23.60;43.40
4107;DHT22;21906;50.812;7.132;2022-08-11T07:35:42;23.70;43.50
4107;DHT22;21906;50.812;7.132;2022-08-11T07:38:22;23.80;43.80
4107;DHT22;21906;50.812;7.132;2022-08-11T07:40:49;23.90;43.20
4107;DHT22;21906;50.812;7.132;2022-08-11T07:43:16;24.00;43.30
4107;DHT22;21906;50.812;7.132;2022-08-11T07:45:43;24.10;42.40
4107;DHT22;21906;50.812;7.132;2022-08-11T07:48:28;24.20;41.80
4107;DHT22;21906;50.812;7.132;2022-08-11T07:51:20;24.30;41.20
4107;DHT22;21906;50.812;7.132;2022-08-11T07:54:05;24.40;40.80
4107;DHT22;21906;50.812;7.132;2022-08-11T07:56:35;24.50;40.80
4107;DHT22;21906;50.812;7.132;2022-08-11T07:59:03;24.50;40.60
4107;DHT22;21906;50.812;7.132;2022-08-11T08:01:47;24.60;40.40
4107;DHT22;21906;50.812;7.132;2022-08-11T08:04:32;24.70;40.40
4107;DHT22;21906;50.812;7.132;2022-08-11T08:07:20;24.80;39.90
4107;DHT22;21906;50.812;7.132;2022-08-11T08:15:16;25.00;39.50
4107;DHT22;21906;50.812;7.132;2022-08-11T08:18:02;25.10;39.90
4107;DHT22;21906;50.812;7.132;2022-08-11T08:20:34;25.10;38.90
4107;DHT22;21906;50.812;7.132;2022-08-11T08:23:01;25.20;39.00
4107;DHT22;21906;50.812;7.132;2022-08-11T08:25:33;25.30;39.20
4107;DHT22;21906;50.812;7.132;2022-08-11T08:28:03;25.40;40.30
4107;DHT22;21906;50.812;7.132;2022-08-11T08:30:30;25.40;39.50
4107;DHT22;21906;50.812;7.132;2022-08-11T08:33:25;25.40;38.70
4107;DHT22;21906;50.812;7.132;2022-08-11T08:35:56;25.50;39.10
4107;DHT22;21906;50.812;7.132;2022-08-11T08:38:47;25.70;38.90
4107;DHT22;21906;50.812;7.132;2022-08-11T08:41:21;25.80;39.00
4107;DHT22;21906;50.812;7.132;2022-08-11T08:43:50;25.80;40.30
4107;DHT22;21906;50.812;7.132;2022-08-11T08:46:19;25.90;39.50
4107;DHT22;21906;50.812;7.132;2022-08-11T08:48:47;25.90;38.60
4107;DHT22;21906;50.812;7.132;2022-08-11T08:51:14;26.00;39.30
4107;DHT22;21906;50.812;7.132;2022-08-11T08:54:04;26.10;38.60
4107;DHT22;21906;50.812;7.132;2022-08-11T08:56:30;26.20;37.70
4107;DHT22;21906;50.812;7.132;2022-08-11T08:59:00;26.30;37.20
4107;DHT22;21906;50.812;7.132;2022-08-11T09:01:47;26.40;37.40
4107;DHT22;21906;50.812;7.132;2022-08-11T09:04:14;26.40;38.40
4107;DHT22;21906;50.812;7.132;2022-08-11T09:06:40;26.60;37.60
4107;DHT22;21906;50.812;7.132;2022-08-11T09:09:10;26.60;37.10
4107;DHT22;21906;50.812;7.132;2022-08-11T09:11:40;26.60;37.50
4107;DHT22;21906;50.812;7.132;2022-08-11T09:14:26;26.70;36.80
4107;DHT22;21906;50.812;7.132;2022-08-11T09:17:18;26.70;37.00
4107;DHT22;21906;50.812;7.132;2022-08-11T09:19:45;26.90;37.30
4107;DHT22;21906;50.812;7.132;2022-08-11T09:22:12;26.90;36.50
4107;DHT22;21906;50.812;7.132;2022-08-11T09:25:02;27.10;35.70
4107;DHT22;21906;50.812;7.132;2022-08-11T09:27:47;27.00;36.10
4107;DHT22;21906;50.812;7.132;2022-08-11T09:30:12;27.10;36.10
4107;DHT22;21906;50.812;7.132;2022-08-11T09:32:38;27.20;35.90
4107;DHT22;21906;50.812;7.132;2022-08-11T09:35:07;27.30;35.50
4107;DHT22;21906;50.812;7.132;2022-08-11T09:37:33;27.40;35.60
4107;DHT22;21906;50.812;7.132;2022-08-11T09:40:18;27.50;35.50
4107;DHT22;21906;50.812;7.132;2022-08-11T09:42:57;27.60;34.30
4107;DHT22;21906;50.812;7.132;2022-08-11T09:45:52;27.80;33.30
4107;DHT22;21906;50.812;7.132;2022-08-11T09:48:19;27.80;33.60
4107;DHT22;21906;50.812;7.132;2022-08-11T09:50:51;27.80;32.00
4107;DHT22;21906;50.812;7.132;2022-08-11T09:53:20;27.90;32.90
4107;DHT22;21906;50.812;7.132;2022-08-11T09:55:47;27.90;31.60
4107;DHT22;21906;50.812;7.132;2022-08-11T09:58:14;28.00;32.70
4107;DHT22;21906;50.812;7.132;2022-08-11T10:00:48;28.10;32.20
4107;DHT22;21906;50.812;7.132;2022-08-11T10:03:26;28.20;31.70
4107;DHT22;21906;50.812;7.132;2022-08-11T10:05:55;28.30;31.80
4107;DHT22;21906;50.812;7.132;2022-08-11T10:08:42;28.30;31.30
4107;DHT22;21906;50.812;7.132;2022-08-11T10:11:11;28.40;31.90
4107;DHT22;21906;50.812;7.132;2022-08-11T10:13:41;28.40;32.10
4107;DHT22;21906;50.812;7.132;2022-08-11T10:16:27;28.50;30.90
4107;DHT22;21906;50.812;7.132;2022-08-11T10:18:55;28.60;30.70
4107;DHT22;21906;50.812;7.132;2022-08-11T10:21:43;28.70;30.90
4107;DHT22;21906;50.812;7.132;2022-08-11T10:24:31;28.60;30.50
4107;DHT22;21906;50.812;7.132;2022-08-11T10:27:16;28.70;31.90
4107;DHT22;21906;50.812;7.132;2022-08-11T10:29:55;28.80;31.30
4107;DHT22;21906;50.812;7.132;2022-08-11T10:32:40;28.80;30.90
4107;DHT22;21906;50.812;7.132;2022-08-11T10:35:26;28.90;31.60
4107;DHT22;21906;50.812;7.132;2022-08-11T10:37:53;29.10;29.80
4107;DHT22;21906;50.812;7.132;2022-08-11T10:40:21;29.40;30.20
4107;DHT22;21906;50.812;7.132;2022-08-11T10:42:50;29.50;30.30
4107;DHT22;21906;50.812;7.132;2022-08-11T10:45:37;29.70;29.40
4107;DHT22;21906;50.812;7.132;2022-08-11T10:48:23;29.90;29.60
4107;DHT22;21906;50.812;7.132;2022-08-11T10:50:50;29.90;30.30
4107;DHT22;21906;50.812;7.132;2022-08-11T10:53:37;30.00;30.30
4107;DHT22;21906;50.812;7.132;2022-08-11T10:56:23;30.20;29.70
4107;DHT22;21906;50.812;7.132;2022-08-11T10:59:08;30.20;29.30
4107;DHT22;21906;50.812;7.132;2022-08-11T11:01:37;30.10;29.30
4107;DHT22;21906;50.812;7.132;2022-08-11T11:04:07;30.20;28.90
4107;DHT22;21906;50.812;7.132;2022-08-11T11:07:02;30.20;29.60
4107;DHT22;21906;50.812;7.132;2022-08-11T11:09:53;30.40;28.80
4107;DHT22;21906;50.812;7.132;2022-08-11T11:12:29;30.40;28.60
4107;DHT22;21906;50.812;7.132;2022-08-11T11:15:18;30.40;29.00
4107;DHT22;21906;50.812;7.132;2022-08-11T11:18:08;30.60;29.90
4107;DHT22;21906;50.812;7.132;2022-08-11T11:20:40;30.80;28.40
4107;DHT22;21906;50.812;7.132;2022-08-11T11:37:17;31.10;28.30
4107;DHT22;21906;50.812;7.132;2022-08-11T11:39:44;31.20;27.40
4107;DHT22;21906;50.812;7.132;2022-08-11T11:42:10;31.20;28.20
4107;DHT22;21906;50.812;7.132;2022-08-11T11:44:37;31.30;27.80
4107;DHT22;21906;50.812;7.132;2022-08-11T11:47:05;31.30;28.30
4107;DHT22;21906;50.812;7.132;2022-08-11T11:49:32;31.40;28.40
4107;DHT22;21906;50.812;7.132;2022-08-11T11:52:05;31.50;28.00
4107;DHT22;21906;50.812;7.132;2022-08-11T11:54:33;31.40;27.10
4107;DHT22;21906;50.812;7.132;2022-08-11T11:57:01;31.40;27.00
4107;DHT22;21906;50.812;7.132;2022-08-11T11:59:48;31.50;27.40
4107;DHT22;21906;50.812;7.132;2022-08-11T12:02:34;31.70;27.20
4107;DHT22;21906;50.812;7.132;2022-08-11T12:05:00;31.80;27.20
4107;DHT22;21906;50.812;7.132;2022-08-11T12:07:27;31.90;26.60
4107;DHT22;21906;50.812;7.132;2022-08-11T12:10:12;31.90;26.70
4107;DHT22;21906;50.812;7.132;2022-08-11T12:12:39;31.90;25.80
4107;DHT22;21906;50.812;7.132;2022-08-11T12:15:23;31.90;26.40
4107;DHT22;21906;50.812;7.132;2022-08-11T12:17:49;32.00;26.00
4107;DHT22;21906;50.812;7.132;2022-08-11T12:20:18;32.10;25.90
4107;DHT22;21906;50.812;7.132;2022-08-11T12:22:46;32.20;25.90
4107;DHT22;21906;50.812;7.132;2022-08-11T12:25:31;32.20;26.10
4107;DHT22;21906;50.812;7.132;2022-08-11T12:28:17;32.40;26.30
4107;DHT22;21906;50.812;7.132;2022-08-11T12:30:43;32.40;25.70
4107;DHT22;21906;50.812;7.132;2022-08-11T12:33:13;32.40;25.50
4107;DHT22;21906;50.812;7.132;2022-08-11T12:35:40;32.40;26.20
4107;DHT22;21906;50.812;7.132;2022-08-11T12:38:07;32.50;25.30
4107;DHT22;21906;50.812;7.132;2022-08-11T12:40:34;32.40;24.70
4107;DHT22;21906;50.812;7.132;2022-08-11T12:43:21;32.40;24.60
4107;DHT22;21906;50.812;7.132;2022-08-11T12:46:13;32.30;25.90
4107;DHT22;21906;50.812;7.132;2022-08-11T12:48:45;32.40;24.80
4107;DHT22;21906;50.812;7.132;2022-08-11T12:51:36;32.50;25.20
4107;DHT22;21906;50.812;7.132;2022-08-11T12:57:16;32.90;25.20
4107;DHT22;21906;50.812;7.132;2022-08-11T13:00:03;32.90;24.80
4107;DHT22;21906;50.812;7.132;2022-08-11T13:02:48;33.10;25.70
4107;DHT22;21906;50.812;7.132;2022-08-11T13:05:33;33.20;25.30
4107;DHT22;21906;50.812;7.132;2022-08-11T13:08:03;33.30;25.20
4107;DHT22;21906;50.812;7.132;2022-08-11T13:10:31;33.40;24.70
4107;DHT22;21906;50.812;7.132;2022-08-11T13:13:18;33.50;23.80
4107;DHT22;21906;50.812;7.132;2022-08-11T13:15:48;33.50;24.60
4107;DHT22;21906;50.812;7.132;2022-08-11T13:18:18;33.70;25.30
4107;DHT22;21906;50.812;7.132;2022-08-11T13:20:50;33.80;25.00
4107;DHT22;21906;50.812;7.132;2022-08-11T13:23:17;33.90;25.00
4107;DHT22;21906;50.812;7.132;2022-08-11T13:25:44;33.90;24.50
4107;DHT22;21906;50.812;7.132;2022-08-11T13:28:10;34.00;24.80
4107;DHT22;21906;50.812;7.132;2022-08-11T13:30:37;34.00;23.50
4107;DHT22;21906;50.812;7.132;2022-08-11T13:33:21;33.90;24.20
4107;DHT22;21906;50.812;7.132;2022-08-11T13:35:50;34.00;24.70
4107;DHT22;21906;50.812;7.132;2022-08-11T13:38:19;34.20;24.80
4107;DHT22;21906;50.812;7.132;2022-08-11T13:40:47;34.20;24.30
4107;DHT22;21906;50.812;7.132;2022-08-11T13:43:14;34.20;23.90
4107;DHT22;21906;50.812;7.132;2022-08-11T13:45:41;34.00;24.10
4107;DHT22;21906;50.812;7.132;2022-08-11T13:48:09;33.90;23.60
4107;DHT22;21906;50.812;7.132;2022-08-11T13:50:37;34.10;25.10
4107;DHT22;21906;50.812;7.132;2022-08-11T13:53:23;34.30;24.70
4107;DHT22;21906;50.812;7.132;2022-08-11T13:55:50;34.60;23.80
4107;DHT22;21906;50.812;7.132;2022-08-11T13:58:16;34.70;24.00
4107;DHT22;21906;50.812;7.132;2022-08-11T14:00:48;34.80;23.40
4107;DHT22;21906;50.812;7.132;2022-08-11T14:03:18;34.90;23.80
4107;DHT22;21906;50.812;7.132;2022-08-11T14:05:51;34.90;23.20
4107;DHT22;21906;50.812;7.132;2022-08-11T14:08:21;35.00;23.10
4107;DHT22;21906;50.812;7.132;2022-08-11T14:10:49;35.00;23.70
4107;DHT22;21906;50.812;7.132;2022-08-11T14:13:38;35.10;23.40
4107;DHT22;21906;50.812;7.132;2022-08-11T14:16:19;35.40;23.40
4107;DHT22;21906;50.812;7.132;2022-08-11T14:18:47;35.70;22.20
4107;DHT22;21906;50.812;7.132;2022-08-11T14:21:16;35.90;21.80
4107;DHT22;21906;50.812;7.132;2022-08-11T14:24:02;36.10;22.30
4107;DHT22;21906;50.812;7.132;2022-08-11T14:26:29;36.30;21.90
4107;DHT22;21906;50.812;7.132;2022-08-11T14:29:05;36.50;22.30
4107;DHT22;21906;50.812;7.132;2022-08-11T14:31:34;36.80;22.30
4107;DHT22;21906;50.812;7.132;2022-08-11T14:34:03;36.60;21.00
4107;DHT22;21906;50.812;7.132;2022-08-11T14:36:43;36.60;21.50
4107;DHT22;21906;50.812;7.132;2022-08-11T14:39:11;36.40;20.50
4107;DHT22;21906;50.812;7.132;2022-08-11T14:41:42;36.30;21.20
4107;DHT22;21906;50.812;7.132;2022-08-11T14:44:29;36.30;20.50
4107;DHT22;21906;50.812;7.132;2022-08-11T14:47:14;36.30;21.00
4107;DHT22;21906;50.812;7.132;2022-08-11T14:49:41;36.30;19.90
4107;DHT22;21906;50.812;7.132;2022-08-11T14:52:13;36.50;21.10
4107;DHT22;21906;50.812;7.132;2022-08-11T14:54:42;37.00;20.40
4107;DHT22;21906;50.812;7.132;2022-08-11T14:57:28;37.10;20.20
4107;DHT22;21906;50.812;7.132;2022-08-11T14:59:59;37.50;21.10
4107;DHT22;21906;50.812;7.132;2022-08-11T15:02:25;38.00;19.30
4107;DHT22;21906;50.812;7.132;2022-08-11T15:05:11;38.20;18.80
4107;DHT22;21906;50.812;7.132;2022-08-11T15:07:37;38.80;18.30
4107;DHT22;21906;50.812;7.132;2022-08-11T15:10:06;38.90;19.00
4107;DHT22;21906;50.812;7.132;2022-08-11T15:12:34;39.30;18.00
4107;DHT22;21906;50.812;7.132;2022-08-11T15:15:05;39.40;17.20
4107;DHT22;21906;50.812;7.132;2022-08-11T15:17:56;39.80;18.10
4107;DHT22;21906;50.812;7.132;2022-08-11T15:20:24;40.60;17.30
4107;DHT22;21906;50.812;7.132;2022-08-11T15:23:08;41.40;17.20
4107;DHT22;21906;50.812;7.132;2022-08-11T15:25:59;41.60;16.90
4107;DHT22;21906;50.812;7.132;2022-08-11T15:28:29;42.40;16.20
4107;DHT22;21906;50.812;7.132;2022-08-11T15:31:15;42.30;15.40
4107;DHT22;21906;50.812;7.132;2022-08-11T15:33:51;42.30;15.30
4107;DHT22;21906;50.812;7.132;2022-08-11T15:36:36;42.40;15.90
4107;DHT22;21906;50.812;7.132;2022-08-11T15:39:26;42.90;15.40
4107;DHT22;21906;50.812;7.132;2022-08-11T15:44:52;44.40;16.00
4107;DHT22;21906;50.812;7.132;2022-08-11T15:47:43;44.30;14.40
4107;DHT22;21906;50.812;7.132;2022-08-11T15:50:15;44.20;15.00
4107;DHT22;21906;50.812;7.132;2022-08-11T15:52:57;44.40;15.10
4107;DHT22;21906;50.812;7.132;2022-08-11T15:55:24;45.10;13.70
4107;DHT22;21906;50.812;7.132;2022-08-11T16:03:12;46.70;14.30
4107;DHT22;21906;50.812;7.132;2022-08-11T16:05:58;47.10;13.30
4107;DHT22;21906;50.812;7.132;2022-08-11T16:08:24;46.60;13.50
4107;DHT22;21906;50.812;7.132;2022-08-11T16:10:53;47.20;14.30
4107;DHT22;21906;50.812;7.132;2022-08-11T16:13:21;47.30;13.20
4107;DHT22;21906;50.812;7.132;2022-08-11T16:15:54;47.00;13.50
4107;DHT22;21906;50.812;7.132;2022-08-11T16:18:53;47.80;13.70
4107;DHT22;21906;50.812;7.132;2022-08-11T16:21:27;47.90;13.80
4107;DHT22;21906;50.812;7.132;2022-08-11T16:23:56;48.40;13.20
4107;DHT22;21906;50.812;7.132;2022-08-11T16:26:24;48.70;12.70
4107;DHT22;21906;50.812;7.132;2022-08-11T16:28:54;48.70;13.90
4107;DHT22;21906;50.812;7.132;2022-08-11T16:31:21;49.00;12.70
4107;DHT22;21906;50.812;7.132;2022-08-11T16:33:49;49.90;13.30
4107;DHT22;21906;50.812;7.132;2022-08-11T16:36:18;50.40;13.20
4107;DHT22;21906;50.812;7.132;2022-08-11T16:39:03;50.70;11.80
4107;DHT22;21906;50.812;7.132;2022-08-11T16:41:31;50.20;12.80
4107;DHT22;21906;50.812;7.132;2022-08-11T16:44:18;49.80;12.70
4107;DHT22;21906;50.812;7.132;2022-08-11T16:47:05;49.40;12.10
4107;DHT22;21906;50.812;7.132;2022-08-11T16:49:36;49.40;12.60
4107;DHT22;21906;50.812;7.132;2022-08-11T16:52:07;49.60;12.50
4107;DHT22;21906;50.812;7.132;2022-08-11T16:54:37;49.90;12.40
4107;DHT22;21906;50.812;7.132;2022-08-11T16:57:05;50.70;12.70
4107;DHT22;21906;50.812;7.132;2022-08-11T16:59:53;51.00;12.60
4107;DHT22;21906;50.812;7.132;2022-08-11T17:02:22;50.80;12.00
4107;DHT22;21906;50.812;7.132;2022-08-11T17:05:10;50.70;11.90
4107;DHT22;21906;50.812;7.132;2022-08-11T17:07:57;50.50;12.50
4107;DHT22;21906;50.812;7.132;2022-08-11T17:10:48;51.20;12.40
4107;DHT22;21906;50.812;7.132;2022-08-11T17:13:59;50.80;12.30
4107;DHT22;21906;50.812;7.132;2022-08-11T17:16:36;51.20;11.90
4107;DHT22;21906;50.812;7.132;2022-08-11T17:19:13;50.90;12.10
4107;DHT22;21906;50.812;7.132;2022-08-11T17:21:45;49.50;12.00
4107;DHT22;21906;50.812;7.132;2022-08-11T17:24:45;49.40;12.80
4107;DHT22;21906;50.812;7.132;2022-08-11T17:27:17;49.40;12.00
4107;DHT22;21906;50.812;7.132;2022-08-11T17:29:55;49.40;12.30
4107;DHT22;21906;50.812;7.132;2022-08-11T17:35:14;49.80;12.40
4107;DHT22;21906;50.812;7.132;2022-08-11T17:38:18;49.40;12.80
4107;DHT22;21906;50.812;7.132;2022-08-11T17:40:47;48.50;12.50
4107;DHT22;21906;50.812;7.132;2022-08-11T17:43:33;47.20;12.60
4107;DHT22;21906;50.812;7.132;2022-08-11T17:46:17;45.40;13.40
4107;DHT22;21906;50.812;7.132;2022-08-11T17:49:05;42.90;14.40
4107;DHT22;21906;50.812;7.132;2022-08-11T17:51:34;41.00;15.70
4107;DHT22;21906;50.812;7.132;2022-08-11T17:54:20;39.40;16.70
4107;DHT22;21906;50.812;7.132;2022-08-11T17:57:06;38.20;17.90
4107;DHT22;21906;50.812;7.132;2022-08-11T18:00:05;37.40;18.60
4107;DHT22;21906;50.812;7.132;2022-08-11T18:02:37;36.60;19.20
4107;DHT22;21906;50.812;7.132;2022-08-11T18:05:24;36.00;19.80
4107;DHT22;21906;50.812;7.132;2022-08-11T18:07:53;35.50;20.40
4107;DHT22;21906;50.812;7.132;2022-08-11T18:10:39;35.10;21.00
4107;DHT22;21906;50.812;7.132;2022-08-11T18:13:26;34.80;21.40
4107;DHT22;21906;50.812;7.132;2022-08-11T18:16:11;34.40;22.40
4107;DHT22;21906;50.812;7.132;2022-08-11T18:18:56;34.00;22.40
4107;DHT22;21906;50.812;7.132;2022-08-11T18:21:42;33.70;22.40
4107;DHT22;21906;50.812;7.132;2022-08-11T18:24:30;33.50;22.80
4107;DHT22;21906;50.812;7.132;2022-08-11T18:27:18;33.40;23.30
4107;DHT22;21906;50.812;7.132;2022-08-11T18:30:04;33.10;23.60
4107;DHT22;21906;50.812;7.132;2022-08-11T18:32:50;32.90;23.70
4107;DHT22;21906;50.812;7.132;2022-08-11T18:35:37;32.60;24.00
4107;DHT22;21906;50.812;7.132;2022-08-11T18:38:22;32.50;25.20
4107;DHT22;21906;50.812;7.132;2022-08-11T18:41:09;32.30;25.10
4107;DHT22;21906;50.812;7.132;2022-08-11T18:43:57;32.10;25.30
4107;DHT22;21906;50.812;7.132;2022-08-11T18:46:44;32.00;25.70
4107;DHT22;21906;50.812;7.132;2022-08-11T18:49:34;31.80;26.20
4107;DHT22;21906;50.812;7.132;2022-08-11T18:52:20;31.50;26.00
4107;DHT22;21906;50.812;7.132;2022-08-11T18:55:08;31.30;26.00
4107;DHT22;21906;50.812;7.132;2022-08-11T18:57:54;31.20;26.40
4107;DHT22;21906;50.812;7.132;2022-08-11T19:00:41;31.10;26.40
4107;DHT22;21906;50.812;7.132;2022-08-11T19:03:27;30.90;26.70
4107;DHT22;21906;50.812;7.132;2022-08-11T19:06:13;30.80;27.10
4107;DHT22;21906;50.812;7.132;2022-08-11T19:09:01;30.70;27.10
4107;DHT22;21906;50.812;7.132;2022-08-11T19:11:47;30.50;27.60
4107;DHT22;21906;50.812;7.132;2022-08-11T19:14:32;30.40;28.10
4107;DHT22;21906;50.812;7.132;2022-08-11T19:17:19;30.20;28.40
4107;DHT22;21906;50.812;7.132;2022-08-11T19:20:07;30.10;28.70
4107;DHT22;21906;50.812;7.132;2022-08-11T19:22:54;29.90;29.40
4107;DHT22;21906;50.812;7.132;2022-08-11T19:25:40;29.80;29.00
4107;DHT22;21906;50.812;7.132;2022-08-11T19:28:26;29.70;29.60
4107;DHT22;21906;50.812;7.132;2022-08-11T19:31:11;29.50;29.90
4107;DHT22;21906;50.812;7.132;2022-08-11T19:33:57;29.40;30.00
4107;DHT22;21906;50.812;7.132;2022-08-11T19:36:42;29.30;30.40
4107;DHT22;21906;50.812;7.132;2022-08-11T19:39:27;29.20;30.70
4107;DHT22;21906;50.812;7.132;2022-08-11T19:42:12;29.20;30.90
4107;DHT22;21906;50.812;7.132;2022-08-11T19:44:58;29.00;30.50
4107;DHT22;21906;50.812;7.132;2022-08-11T19:47:44;28.90;30.90
4107;DHT22;21906;50.812;7.132;2022-08-11T19:50:31;28.70;31.30
4107;DHT22;21906;50.812;7.132;2022-08-11T19:53:18;28.60;31.10
4107;DHT22;21906;50.812;7.132;2022-08-11T19:56:04;28.50;31.00
4107;DHT22;21906;50.812;7.132;2022-08-11T19:58:50;28.40;31.80
4107;DHT22;21906;50.812;7.132;2022-08-11T20:01:34;28.40;31.80
4107;DHT22;21906;50.812;7.132;2022-08-11T20:04:19;28.30;31.80
4107;DHT22;21906;50.812;7.132;2022-08-11T20:07:04;28.20;32.00
4107;DHT22;21906;50.812;7.132;2022-08-11T20:09:50;28.10;32.10
4107;DHT22;21906;50.812;7.132;2022-08-11T20:12:36;28.10;31.80
4107;DHT22;21906;50.812;7.132;2022-08-11T20:15:23;28.00;32.30
4107;DHT22;21906;50.812;7.132;2022-08-11T20:18:10;27.90;32.50
4107;DHT22;21906;50.812;7.132;2022-08-11T20:20:56;27.80;32.20
4107;DHT22;21906;50.812;7.132;2022-08-11T20:23:45;27.80;32.30
4107;DHT22;21906;50.812;7.132;2022-08-11T20:26:31;27.70;32.10
4107;DHT22;21906;50.812;7.132;2022-08-11T20:29:18;27.60;32.20
4107;DHT22;21906;50.812;7.132;2022-08-11T20:32:04;27.50;32.00
4107;DHT22;21906;50.812;7.132;2022-08-11T20:34:48;27.50;32.20
4107;DHT22;21906;50.812;7.132;2022-08-11T20:37:34;27.40;32.50
4107;DHT22;21906;50.812;7.132;2022-08-11T20:40:21;27.40;32.60
4107;DHT22;21906;50.812;7.132;2022-08-11T20:43:12;27.40;32.70
4107;DHT22;21906;50.812;7.132;2022-08-11T20:45:57;27.30;32.80